Date,TemperatureHighF,TemperatureAvgF,TemperatureLowF,DewpointHighF,DewpointAvgF,DewpointLowF,HumidityHigh,HumidityAvg,HumidityLow,PressureMaxIn,PressureMinIn,WindSpeedMaxMPH,WindSpeedAvgMPH,GustSpeedMaxMPH,PrecipitationSumIn
2013-1-1,33,30,26,-100,-100,-100,0,0,100,0.00,40.00,0,-999,0,0.00
2013-1-2,32,29,26,-100,-100,-100,0,0,100,0.00,40.00,0,-999,0,0.00
2013-1-3,38,29,25,-100,-100,-100,0,0,100,0.00,40.00,0,-999,0,0.01
2013-1-4,40,38,36,-100,-100,-100,0,0,100,0.00,40.00,0,-999,0,0.01
2013-1-5,39,35,32,-100,-100,-100,0,0,100,0.00,40.00,0,-999,0,0.00
2013-1-6,36,35,34,-100,-100,-100,0,0,100,0.00,40.00,0,-999,0,0.00
2013-1-7,42,39,36,-100,-100,-100,0,0,100,0.00,40.00,0,-999,0,0.02
2013-1-8,42,40,35,-100,-100,-100,0,0,100,0.00,40.00,0,-999,0,0.07
2013-1-9,39,33,29,-100,-100,-100,0,0,100,0.00,40.00,0,-999,0,0.02
2013-1-10,33,30,27,-100,-100,-100,0,0,100,0.00,40.00,0,-999,0,0.01
2013-1-11,29,26,23,-100,-100,-100,0,0,100,0.00,40.00,0,-999,0,0.00
2013-1-12,29,25,23,-100,-100,-100,0,0,100,0.00,40.00,0,-999,0,0.00
2013-1-13,32,27,23,-100,-100,-100,0,0,100,0.00,40.00,0,-999,0,0.01
2013-1-14,34,32,30,-100,-100,-100,0,0,100,0.00,40.00,0,-999,0,0.01
2013-1-15,50,41,32,-100,-100,-100,0,0,100,0.00,40.00,0,-999,0,0.01
2013-1-16,55,52,49,-100,-100,-100,0,0,100,0.00,40.00,0,-999,0,0.00
2013-1-17,64,55,50,-100,-100,-100,0,0,100,0.00,40.00,0,-999,0,0.00
2013-1-18,64,56,53,-100,-100,-100,0,0,100,0.00,40.00,0,-999,0,0.00
2013-1-19,60,57,53,-100,-100,-100,0,0,100,0.00,40.00,0,-999,0,0.00
2013-1-20,54,50,42,-100,-100,-100,0,0,100,0.00,40.00,0,-999,0,0.00
2013-1-21,53,48,45,-100,-100,-100,0,0,100,0.00,40.00,0,-999,0,0.00
2013-1-22,49,46,43,-100,-100,-100,0,0,100,0.00,40.00,0,-999,0,0.00
2013-1-23,47,37,33,-100,-100,-100,0,0,100,0.00,40.00,0,-999,0,0.01
2013-1-24,39,35,32,-100,-100,-100,0,0,100,0.00,40.00,0,-999,0,0.01
2013-1-25,42,38,34,-100,-100,-100,0,0,100,0.00,40.00,0,-999,0,0.02
2013-1-26,35,33,31,-100,-100,-100,0,0,100,0.00,40.00,0,-999,0,0.01
2013-1-27,33,32,31,-100,-100,-100,0,0,100,0.00,40.00,0,-999,0,0.01
2013-1-28,34,33,32,-100,-100,-100,0,0,100,0.00,40.00,0,-999,0,0.02
2013-1-29,38,36,34,-100,-100,-100,0,0,100,0.00,40.00,0,-999,0,0.02
2013-1-30,40,39,37,-100,-100,-100,0,0,100,0.00,40.00,0,-999,0,0.01
2013-1-31,43,40,37,-100,-100,-100,0,0,100,0.00,40.00,0,-999,0,0.01
2013-2-1,44,40,35,-100,-100,-100,0,0,100,0.00,40.00,0,-999,0,0.00
2013-2-2,48,43,37,-100,-100,-100,0,0,100,0.00,40.00,0,-999,0,0.01
2013-2-3,38,36,36,-100,-100,-100,0,0,100,0.00,40.00,0,-999,0,0.00
2013-2-4,45,38,35,-100,-100,-100,0,0,100,0.00,40.00,0,-999,0,0.00
2013-2-5,38,36,34,-100,-100,-100,0,0,100,0.00,40.00,0,-999,0,0.02
2013-2-6,36,35,32,-100,-100,-100,0,0,100,0.00,40.00,0,-999,0,0.02
2013-2-7,33,32,31,-100,-100,-100,0,0,100,0.00,40.00,0,-999,0,0.04
2013-2-8,37,32,30,-100,-100,-100,0,0,100,0.00,40.00,0,-999,0,0.01
2013-2-9,37,35,32,-100,-100,-100,0,0,100,0.00,40.00,0,-999,0,0.01
2013-2-10,36,34,32,-100,-100,-100,0,0,100,0.00,40.00,0,-999,0,0.00
2013-2-11,39,36,32,-100,-100,-100,0,0,100,0.00,40.00,0,-999,0,0.00
2013-2-12,41,39,38,-100,-100,-100,0,0,100,0.00,40.00,0,-999,0,0.01
2013-2-13,41,38,35,-100,-100,-100,0,0,100,0.00,40.00,0,-999,0,0.01
2013-2-14,44,40,35,-100,-100,-100,0,0,100,0.00,40.00,0,-999,0,0.00
2013-2-15,50,46,41,-100,-100,-100,0,0,100,0.00,40.00,0,-999,0,0.00
2013-2-16,45,38,32,-100,-100,-100,0,0,100,0.00,40.00,0,-999,0,0.00
2013-2-17,36,32,30,-100,-100,-100,0,0,100,0.00,40.00,0,-999,0,0.01
2013-2-18,33,32,30,-100,-100,-100,0,0,100,0.00,40.00,0,-999,0,0.01
2013-2-19,37,33,31,-100,-100,-100,0,0,100,0.00,40.00,0,-999,0,0.01
2013-2-20,35,32,30,-100,-100,-100,0,0,100,0.00,40.00,0,-999,0,0.01
2013-2-21,34,33,31,-100,-100,-100,0,0,100,0.00,40.00,0,-999,0,0.02
2013-2-22,37,34,30,-100,-100,-100,0,0,100,0.00,40.00,0,-999,0,0.04
2013-2-23,34,31,29,-100,-100,-100,0,0,100,0.00,40.00,0,-999,0,0.03
2013-2-24,36,34,31,-100,-100,-100,0,0,100,0.00,40.00,0,-999,0,0.01
2013-2-25,35,32,31,-100,-100,-100,0,0,100,0.00,40.00,0,-999,0,0.03
2013-2-26,34,32,29,-100,-100,-100,0,0,100,0.00,40.00,0,-999,0,0.01
2013-2-27,39,37,34,-100,-100,-100,0,0,100,0.00,40.00,0,-999,0,0.01
2013-2-28,44,42,38,-100,-100,-100,0,0,100,0.00,40.00,0,-999,0,0.02
2013-3-1,45,43,40,-100,-100,-100,0,0,100,0.00,40.00,0,-999,0,0.01
2013-3-2,42,39,33,-100,-100,-100,0,0,100,0.00,40.00,0,-999,0,0.01
2013-3-3,38,33,29,-100,-100,-100,0,0,100,0.00,40.00,0,-999,0,0.01
2013-3-4,42,35,30,-100,-100,-100,0,0,100,0.00,40.00,0,-999,0,0.00
2013-3-5,36,34,33,-100,-100,-100,0,0,100,0.00,40.00,0,-999,0,0.02
2013-3-6,35,34,33,-100,-100,-100,0,0,100,0.00,40.00,0,-999,0,0.04
2013-3-7,41,36,33,-100,-100,-100,0,0,100,0.00,40.00,0,-999,0,0.01
2013-3-8,45,40,36,-100,-100,-100,0,0,100,0.00,40.00,0,-999,0,0.00
2013-3-9,46,42,37,-100,-100,-100,0,0,100,0.00,40.00,0,-999,0,0.00
2013-3-10,43,42,40,-100,-100,-100,0,0,100,0.00,40.00,0,-999,0,0.00
2013-3-11,44,41,40,-100,-100,-100,0,0,100,0.00,40.00,0,-999,0,0.01
2013-3-12,45,42,41,-100,-100,-100,0,0,100,0.00,40.00,0,-999,0,0.01
2013-3-13,53,45,40,-100,-100,-100,0,0,100,0.00,40.00,0,-999,0,0.00
2013-3-14,48,44,41,-100,-100,-100,0,0,100,0.00,40.00,0,-999,0,0.01
2013-3-15,48,43,41,-100,-100,-100,0,0,100,0.00,40.00,0,-999,0,0.01
2013-3-16,40,36,30,-100,-100,-100,0,0,100,0.00,40.00,0,-999,0,0.02
2013-3-17,33,31,29,-100,-100,-100,0,0,100,0.00,40.00,0,-999,0,0.02
2013-3-18,39,34,30,-100,-100,-100,0,0,100,0.00,40.00,0,-999,0,0.01
2013-3-19,40,36,34,-100,-100,-100,0,0,100,0.00,40.00,0,-999,0,0.02
2013-3-20,43,35,29,-100,-100,-100,0,0,100,0.00,40.00,0,-999,0,0.07
2013-3-21,34,31,29,-100,-100,-100,0,0,100,0.00,40.00,0,-999,0,0.03
2013-3-22,34,30,27,-100,-100,-100,0,0,100,0.00,40.00,0,-999,0,0.01
2013-3-23,36,31,28,-100,-100,-100,0,0,100,0.00,40.00,0,-999,0,0.01
2013-3-24,41,35,32,-100,-100,-100,0,0,100,0.00,40.00,0,-999,0,0.00
2013-3-25,46,41,36,-100,-100,-100,0,0,100,0.00,40.00,0,-999,0,0.00
2013-3-26,43,40,39,-100,-100,-100,0,0,100,0.00,40.00,0,-999,0,0.00
2013-3-27,47,42,38,-100,-100,-100,0,0,100,0.00,40.00,0,-999,0,0.00
2013-3-28,48,44,40,-100,-100,-100,0,0,100,0.00,40.00,0,-999,0,0.01
2013-3-29,53,46,42,-100,-100,-100,0,0,100,0.00,40.00,0,-999,0,0.01
2013-3-30,61,53,46,-100,-100,-100,0,0,100,0.00,40.00,0,-999,0,0.00
2013-3-31,61,53,46,-100,-100,-100,0,0,100,0.00,40.00,0,-999,0,0.00
2013-4-1,53,48,44,-100,-100,-100,0,0,100,0.00,40.00,0,-999,0,0.00
2013-4-2,53,46,40,-100,-100,-100,0,0,100,0.00,40.00,0,-999,0,0.00
2013-4-3,54,49,44,-100,-100,-100,0,0,100,0.00,40.00,0,-999,0,0.00
2013-4-4,51,47,43,-100,-100,-100,0,0,100,0.00,40.00,0,-999,0,0.02
2013-4-5,43,42,40,-100,-100,-100,0,0,100,0.00,40.00,0,-999,0,0.07
2013-4-6,42,38,35,-100,-100,-100,0,0,100,0.00,40.00,0,-999,0,0.03
2013-4-7,41,36,33,-100,-100,-100,0,0,100,0.00,40.00,0,-999,0,0.05
2013-4-8,42,36,33,-100,-100,-100,0,0,100,0.00,40.00,0,-999,0,0.01
2013-4-9,45,41,35,-100,-100,-100,0,0,100,0.00,40.00,0,-999,0,0.00
2013-4-10,45,41,35,-100,-100,-100,0,0,100,0.00,40.00,0,-999,0,0.02
2013-4-11,46,38,34,-100,-100,-100,0,0,100,0.00,40.00,0,-999,0,0.01
2013-4-12,42,38,33,-100,-100,-100,0,0,100,0.00,40.00,0,-999,0,0.00
2013-4-13,35,33,30,-100,-100,-100,0,0,100,0.00,40.00,0,-999,0,0.02
2013-4-14,39,34,32,-100,-100,-100,0,0,100,0.00,40.00,0,-999,0,0.02
2013-4-15,41,35,31,-100,-100,-100,0,0,100,0.00,40.00,0,-999,0,0.01
2013-4-16,44,38,33,-100,-100,-100,0,0,100,0.00,40.00,0,-999,0,0.01
2013-4-17,45,40,37,-100,-100,-100,0,0,100,0.00,40.00,0,-999,0,0.01
2013-4-18,45,40,34,-100,-100,-100,0,0,100,0.00,40.00,0,-999,0,0.00
2013-4-19,43,42,40,-100,-100,-100,0,0,100,0.00,40.00,0,-999,0,0.02
2013-4-20,45,40,36,-100,-100,-100,0,0,100,0.00,40.00,0,-999,0,0.01
2013-4-21,43,39,35,-100,-100,-100,0,0,100,0.00,40.00,0,-999,0,0.01
2013-4-22,50,42,34,-100,-100,-100,0,0,100,0.00,40.00,0,-999,0,0.00
2013-4-23,55,49,41,-100,-100,-100,0,0,100,0.00,40.00,0,-999,0,0.00
2013-4-24,59,54,50,-100,-100,-100,0,0,100,0.00,40.00,0,-999,0,0.00
2013-4-25,63,58,49,-100,-100,-100,0,0,100,0.00,40.00,0,-999,0,0.00
2013-4-26,66,60,53,-100,-100,-100,0,0,100,0.00,40.00,0,-999,0,0.00
2013-4-27,57,51,44,-100,-100,-100,0,0,100,0.00,40.00,0,-999,0,0.00
2013-4-28,52,45,41,-100,-100,-100,0,0,100,0.00,40.00,0,-999,0,0.01
2013-4-29,43,38,32,-100,-100,-100,0,0,100,0.00,40.00,0,-999,0,0.02
2013-4-30,44,36,31,-100,-100,-100,0,0,100,0.00,40.00,0,-999,0,0.01
2013-5-1,54,47,34,-100,-100,-100,0,0,100,0.00,40.00,0,-999,0,0.01
2013-5-2,65,55,49,-100,-100,-100,0,0,100,0.00,40.00,0,-999,0,0.01
2013-5-3,65,58,48,-100,-100,-100,0,0,100,0.00,40.00,0,-999,0,0.01
2013-5-4,67,59,52,-100,-100,-100,0,0,100,0.00,40.00,0,-999,0,0.00
2013-5-5,67,61,54,-100,-100,-100,0,0,100,0.00,40.00,0,-999,0,0.01
2013-5-6,69,63,60,-100,-100,-100,0,0,100,0.00,40.00,0,-999,0,0.00
2013-5-7,63,58,54,-100,-100,-100,0,0,100,0.00,40.00,0,-999,0,0.00
2013-5-8,63,57,47,-100,-100,-100,0,0,100,0.00,40.00,0,-999,0,0.00
2013-5-9,69,60,54,-100,-100,-100,0,0,100,0.00,40.00,0,-999,0,0.00
2013-5-10,70,63,57,-100,-100,-100,0,0,100,0.00,40.00,0,-999,0,0.00
2013-5-11,71,62,56,-100,-100,-100,0,0,100,0.00,40.00,0,-999,0,0.00
2013-5-12,59,54,49,-100,-100,-100,0,0,100,0.00,40.00,0,-999,0,0.01
2013-5-13,52,44,39,-100,-100,-100,0,0,100,0.00,40.00,0,-999,0,0.01
2013-5-14,51,45,38,-100,-100,-100,0,0,100,0.00,40.00,0,-999,0,0.01
2013-5-15,46,45,43,-100,-100,-100,0,0,100,0.00,40.00,0,-999,0,0.01
2013-5-16,48,45,42,-100,-100,-100,0,0,100,0.00,40.00,0,-999,0,0.02
2013-5-17,46,43,40,-100,-100,-100,0,0,100,0.00,40.00,0,-999,0,0.01
2013-5-18,45,43,40,-100,-100,-100,0,0,100,0.00,40.00,0,-999,0,0.02
2013-5-19,52,46,40,-100,-100,-100,0,0,100,0.00,40.00,0,-999,0,0.01
2013-5-20,57,50,43,-100,-100,-100,0,0,100,0.00,40.00,0,-999,0,0.00
2013-5-21,45,38,34,-100,-100,-100,0,0,100,0.00,40.00,0,-999,0,0.01
2013-5-22,40,37,34,-100,-100,-100,0,0,100,0.00,40.00,0,-999,0,0.04
2013-5-23,41,39,36,-100,-100,-100,0,0,100,0.00,40.00,0,-999,0,0.05
2013-5-24,45,40,38,-100,-100,-100,0,0,100,0.00,40.00,0,-999,0,0.03
2013-5-25,49,44,39,-100,-100,-100,0,0,100,0.00,40.00,0,-999,0,0.01
2013-5-26,47,44,42,-100,-100,-100,0,0,100,0.00,40.00,0,-999,0,0.02
2013-5-27,50,44,42,-100,-100,-100,0,0,100,0.00,40.00,0,-999,0,0.04
2013-5-28,46,43,41,-100,-100,-100,0,0,100,0.00,40.00,0,-999,0,0.01
2013-5-29,45,43,40,-100,-100,-100,0,0,100,0.00,40.00,0,-999,0,0.04
2013-5-30,46,42,39,-100,-100,-100,0,0,100,0.00,40.00,0,-999,0,0.01
2013-5-31,53,46,41,-100,-100,-100,0,0,100,0.00,40.00,0,-999,0,0.00
2013-6-1,60,52,46,-100,-100,-100,0,0,100,0.00,40.00,0,-999,0,0.00
2013-6-2,55,50,43,-100,-100,-100,0,0,100,0.00,40.00,0,-999,0,0.00
2013-6-3,61,54,49,-100,-100,-100,0,0,100,0.00,40.00,0,-999,0,0.00
2013-6-4,68,59,50,-100,-100,-100,0,0,100,0.00,40.00,0,-999,0,3.18
2013-6-5,67,62,58,-100,-100,-100,0,0,100,0.00,40.00,0,-999,0,3.18
2013-6-6,68,61,55,-100,-100,-100,0,0,100,0.00,40.00,0,-999,0,0.00
2013-6-7,62,58,52,-100,-100,-100,0,0,100,0.00,40.00,0,-999,0,0.00
2013-6-8,65,58,51,-100,-100,-100,0,0,100,0.00,40.00,0,-999,0,0.00
2013-6-9,59,51,45,-100,-100,-100,0,0,100,0.00,40.00,0,-999,0,0.00
2013-6-10,55,46,39,-100,-100,-100,0,0,100,0.00,40.00,0,-999,0,0.00
2013-6-11,48,44,40,-100,-100,-100,0,0,100,0.00,40.00,0,-999,0,0.00
2013-6-12,48,44,42,-100,-100,-100,0,0,100,0.00,40.00,0,-999,0,0.01
2013-6-13,53,46,42,-100,-100,-100,0,0,100,0.00,40.00,0,-999,0,0.01
2013-6-14,55,48,43,-100,-100,-100,0,0,100,0.00,40.00,0,-999,0,0.01
2013-6-15,64,58,52,-100,-100,-100,0,0,100,0.00,40.00,0,-999,0,0.00
2013-6-16,60,55,48,-100,-100,-100,0,0,100,0.00,40.00,0,-999,0,0.00
2013-6-17,57,51,46,-100,-100,-100,0,0,100,0.00,40.00,0,-999,0,0.00
2013-6-18,51,47,42,-100,-100,-100,0,0,100,0.00,40.00,0,-999,0,0.00
2013-6-19,51,46,43,-100,-100,-100,0,0,100,0.00,40.00,0,-999,0,0.01
2013-6-20,49,45,43,-100,-100,-100,0,0,100,0.00,40.00,0,-999,0,0.01
2013-6-22,63,58,50,-100,-100,-100,0,0,100,0.00,40.00,0,-999,0,0.00
2013-6-23,55,53,52,-100,-100,-100,0,0,100,0.00,40.00,0,-999,0,0.01
2013-6-24,51,48,45,-100,-100,-100,0,0,100,0.00,40.00,0,-999,0,0.02
2013-6-25,52,48,47,-100,-100,-100,0,0,100,0.00,40.00,0,-999,0,0.02
2013-6-26,57,52,48,-100,-100,-100,0,0,100,0.00,40.00,0,-999,0,0.01
2013-6-27,60,56,52,-100,-100,-100,0,0,100,0.00,40.00,0,-999,0,0.01
2013-6-28,73,66,57,-100,-100,-100,0,0,100,0.00,40.00,0,-999,0,0.00
2013-6-29,71,66,61,-100,-100,-100,0,0,100,0.00,40.00,0,-999,0,0.00
2013-6-30,79,71,63,-100,-100,-100,0,0,100,0.00,40.00,0,-999,0,0.00
2013-7-1,78,70,65,-100,-100,-100,0,0,100,0.00,40.00,0,-999,0,0.00
2013-7-2,74,68,60,-100,-100,-100,0,0,100,0.00,40.00,0,-999,0,0.00
2013-7-3,71,63,57,-100,-100,-100,0,0,100,0.00,40.00,0,-999,0,0.01
2013-7-4,61,54,47,-100,-100,-100,0,0,100,0.00,40.00,0,-999,0,0.00
2013-7-5,61,53,45,-100,-100,-100,0,0,100,0.00,40.00,0,-999,0,0.00
2013-7-6,65,56,50,-100,-100,-100,0,0,100,0.00,40.00,0,-999,0,0.01
2013-7-7,64,59,54,-100,-100,-100,0,0,100,0.00,40.00,0,-999,0,0.01
2013-7-8,68,58,53,-100,-100,-100,0,0,100,0.00,40.00,0,-999,0,0.00
2013-7-9,73,65,58,-100,-100,-100,0,0,100,0.00,40.00,0,-999,0,0.01
2013-7-10,66,61,54,-100,-100,-100,0,0,100,0.00,40.00,0,-999,0,0.01
2013-7-11,62,53,43,-100,-100,-100,0,0,100,0.00,40.00,0,-999,0,0.00
2013-7-12,59,53,47,-100,-100,-100,0,0,100,0.00,40.00,0,-999,0,0.00
2013-7-13,64,57,48,-100,-100,-100,0,0,100,0.00,40.00,0,-999,0,0.01
2013-7-14,71,61,54,-100,-100,-100,0,0,100,0.00,40.00,0,-999,0,0.00
2013-7-15,69,60,54,-100,-100,-100,0,0,100,0.00,40.00,0,-999,0,0.01
2013-7-16,72,66,62,-100,-100,-100,0,0,100,0.00,40.00,0,-999,0,0.01
2013-7-17,64,56,48,-100,-100,-100,0,0,100,0.00,40.00,0,-999,0,0.00
2013-7-18,70,64,53,-100,-100,-100,0,0,100,0.00,40.00,0,-999,0,0.01
2013-7-19,71,63,58,-100,-100,-100,0,0,100,0.00,40.00,0,-999,0,0.00
2013-7-20,71,63,60,-100,-100,-100,0,0,100,0.00,40.00,0,-999,0,0.01
2013-7-21,71,64,59,-100,-100,-100,0,0,100,0.00,40.00,0,-999,0,0.00
2013-7-22,72,65,60,-100,-100,-100,0,0,100,0.00,40.00,0,-999,0,0.17
2013-7-23,76,69,62,-100,-100,-100,0,0,100,0.00,40.00,0,-999,0,0.15
2013-7-24,74,68,61,-100,-100,-100,0,0,100,0.00,40.00,0,-999,0,0.00
2013-7-25,76,68,62,-100,-100,-100,0,0,100,0.00,40.00,0,-999,0,0.01
2013-7-26,74,66,58,-100,-100,-100,0,0,100,0.00,40.00,0,-999,0,0.01
2013-7-27,65,58,52,-100,-100,-100,0,0,100,0.00,40.00,0,-999,0,0.01
2013-7-28,58,55,52,-100,-100,-100,0,0,100,0.00,40.00,0,-999,0,0.00
2013-7-29,65,55,45,-100,-100,-100,0,0,100,0.00,40.00,0,-999,0,0.01
2013-7-30,65,60,54,-100,-100,-100,0,0,100,0.00,40.00,0,-999,0,0.00
2013-7-31,65,60,57,-100,-100,-100,0,0,100,0.00,40.00,0,-999,0,0.01
2013-8-1,55,51,48,-100,-100,-100,0,0,100,0.00,40.00,0,-999,0,0.01
2013-8-2,56,51,48,-100,-100,-100,0,0,100,0.00,40.00,0,-999,0,0.01
2013-8-3,67,58,51,-100,-100,-100,0,0,100,0.00,40.00,0,-999,0,0.00
2013-8-4,73,66,60,-100,-100,-100,0,0,100,0.00,40.00,0,-999,0,0.00
2013-8-5,73,67,61,-100,-100,-100,0,0,100,0.00,40.00,0,-999,0,0.00
2013-8-6,77,70,62,-100,-100,-100,0,0,100,0.00,40.00,0,-999,0,0.00
2013-8-7,73,66,61,-100,-100,-100,0,0,100,0.00,40.00,0,-999,0,0.01
2013-8-8,71,62,57,-100,-100,-100,0,0,100,0.00,40.00,0,-999,0,0.01
2013-8-9,71,65,61,-100,-100,-100,0,0,100,0.00,40.00,0,-999,0,0.01
2013-8-10,65,61,55,-100,-100,-100,0,0,100,0.00,40.00,0,-999,0,0.02
2013-8-11,58,55,51,-100,-100,-100,0,0,100,0.00,40.00,0,-999,0,0.02
2013-8-12,60,56,52,-100,-100,-100,0,0,100,0.00,40.00,0,-999,0,0.01
2013-8-13,69,61,50,-100,-100,-100,0,0,100,0.00,40.00,0,-999,0,0.00
2013-8-14,67,61,57,-100,-100,-100,0,0,100,0.00,40.00,0,-999,0,0.01
2013-8-15,61,58,57,-100,-100,-100,0,0,100,0.00,40.00,0,-999,0,0.01
2013-8-16,68,62,56,-100,-100,-100,0,0,100,0.00,40.00,0,-999,0,0.01
2013-8-17,66,61,56,-100,-100,-100,0,0,100,0.00,40.00,0,-999,0,0.00
2013-8-18,67,65,61,-100,-100,-100,0,0,100,0.00,40.00,0,-999,0,0.00
2013-8-19,68,62,55,-100,-100,-100,0,0,100,0.00,40.00,0,-999,0,0.00
2013-8-20,67,58,51,-100,-100,-100,0,0,100,0.00,40.00,0,-999,0,0.01
2013-8-21,73,63,56,-100,-100,-100,0,0,100,0.00,40.00,0,-999,0,0.00
2013-8-22,71,67,60,-100,-100,-100,0,0,100,0.00,40.00,0,-999,0,0.00
2013-8-23,63,56,51,-100,-100,-100,0,0,100,0.00,40.00,0,-999,0,0.01
2013-8-24,61,54,50,-100,-100,-100,0,0,100,0.00,40.00,0,-999,0,0.01
2013-8-25,57,54,52,-100,-100,-100,0,0,100,0.00,40.00,0,-999,0,0.01
2013-8-26,58,52,48,-100,-100,-100,0,0,100,0.00,40.00,0,-999,0,0.01
2013-8-27,59,54,52,-100,-100,-100,0,0,100,0.00,40.00,0,-999,0,0.03
2013-8-28,61,60,58,-100,-100,-100,0,0,100,0.00,40.00,0,-999,0,0.00
2013-8-29,58,57,55,-100,-100,-100,0,0,100,0.00,40.00,0,-999,0,0.02
2013-8-30,63,58,53,-100,-100,-100,0,0,100,0.00,40.00,0,-999,0,0.01
2013-8-31,72,63,55,-100,-100,-100,0,0,100,0.00,40.00,0,-999,0,0.00
2013-9-1,67,59,54,-100,-100,-100,0,0,100,0.00,40.00,0,-999,0,0.01
2013-9-2,60,55,52,-100,-100,-100,0,0,100,0.00,40.00,0,-999,0,0.01
2013-9-3,62,57,52,-100,-100,-100,0,0,100,0.00,40.00,0,-999,0,0.01
2013-9-4,60,56,53,-100,-100,-100,0,0,100,0.00,40.00,0,-999,0,0.01
2013-9-5,57,54,53,-100,-100,-100,0,0,100,0.00,40.00,0,-999,0,0.02
2013-9-6,55,53,51,-100,-100,-100,0,0,100,0.00,40.00,0,-999,0,0.02
2013-9-8,70,63,56,-100,-100,-100,0,0,100,0.00,40.00,0,-999,0,0.00
2013-9-9,72,66,61,-100,-100,-100,0,0,100,0.00,40.00,0,-999,0,0.00
2013-9-10,76,68,60,-100,-100,-100,0,0,100,0.00,40.00,0,-999,0,0.00
2013-9-11,81,74,68,-100,-100,-100,0,0,100,0.00,40.00,0,-999,0,0.00
2013-9-12,77,71,64,-100,-100,-100,0,0,100,0.00,40.00,0,-999,0,0.01
2013-9-13,70,65,58,-100,-100,-100,0,0,100,0.00,40.00,0,-999,0,0.01
2013-9-14,74,67,62,-100,-100,-100,0,0,100,0.00,40.00,0,-999,0,0.00
2013-9-15,67,56,51,-100,-100,-100,0,0,100,0.00,40.00,0,-999,0,0.01
2013-9-16,55,52,50,-100,-100,-100,0,0,100,0.00,40.00,0,-999,0,0.01
2013-9-17,52,49,47,-100,-100,-100,0,0,100,0.00,40.00,0,-999,0,0.01
2013-9-18,50,49,46,-100,-100,-100,0,0,100,0.00,40.00,0,-999,0,0.00
2013-9-19,64,56,48,-100,-100,-100,0,0,100,0.00,40.00,0,-999,0,0.00
2013-9-20,55,53,49,-100,-100,-100,0,0,100,0.00,40.00,0,-999,0,0.01
2013-9-21,51,48,46,-100,-100,-100,0,0,100,0.00,40.00,0,-999,0,0.01
2013-9-22,49,46,45,-100,-100,-100,0,0,100,0.00,40.00,0,-999,0,0.06
2013-9-23,49,46,44,-100,-100,-100,0,0,100,0.00,40.00,0,-999,0,0.03
2013-9-24,46,43,41,-100,-100,-100,0,0,100,0.00,40.00,0,-999,0,0.02
2013-9-25,47,43,40,-100,-100,-100,0,0,100,0.00,40.00,0,-999,0,0.02
2013-9-26,52,47,43,-100,-100,-100,0,0,100,0.00,40.00,0,-999,0,0.00
2013-9-27,50,47,43,-100,-100,-100,0,0,100,0.00,40.00,0,-999,0,0.02
2013-9-28,52,50,43,-100,-100,-100,0,0,100,0.00,40.00,0,-999,0,0.18
2013-9-29,46,44,43,-100,-100,-100,0,0,100,0.00,40.00,0,-999,0,0.17
2013-9-30,44,43,41,-100,-100,-100,0,0,100,0.00,40.00,0,-999,0,0.07
2013-10-1,46,42,40,-100,-100,-100,0,0,100,0.00,40.00,0,-999,0,0.00
2013-10-2,43,41,39,-100,-100,-100,0,0,100,0.00,40.00,0,-999,0,0.02
2013-10-3,47,42,38,-100,-100,-100,0,0,100,0.00,40.00,0,-999,0,0.02
2013-10-4,54,50,40,-100,-100,-100,0,0,100,0.00,40.00,0,-999,0,0.00
2013-10-5,63,56,50,-100,-100,-100,0,0,100,0.00,40.00,0,-999,0,0.00
2013-10-6,62,53,46,-100,-100,-100,0,0,100,0.00,40.00,0,-999,0,0.00
2013-10-7,48,44,42,-100,-100,-100,0,0,100,0.00,40.00,0,-999,0,0.03
2013-10-8,43,42,39,-100,-100,-100,0,0,100,0.00,40.00,0,-999,0,0.02
2013-10-9,47,42,38,-100,-100,-100,0,0,100,0.00,40.00,0,-999,0,0.01
2013-10-10,47,44,40,-100,-100,-100,0,0,100,0.00,40.00,0,-999,0,0.01
2013-10-11,45,42,40,-100,-100,-100,0,0,100,0.00,40.00,0,-999,0,0.01
2013-10-12,43,41,40,-100,-100,-100,0,0,100,0.00,40.00,0,-999,0,0.01
2013-10-13,50,46,41,-100,-100,-100,0,0,100,0.00,40.00,0,-999,0,0.00
2013-10-21,59,59,58,-100,-100,-100,0,0,100,0.00,40.00,0,-999,0,0.00
2013-10-22,62,59,56,-100,-100,-100,0,0,100,0.00,40.00,0,-999,0,0.00
2013-10-23,56,55,55,-100,-100,-100,0,0,100,0.00,40.00,0,-999,0,0.00
2013-10-24,61,60,58,-100,-100,-100,0,0,100,0.00,40.00,0,-999,0,0.00
2013-10-25,55,51,49,-100,-100,-100,0,0,100,0.00,40.00,0,-999,0,0.00
2013-10-26,58,54,53,-100,-100,-100,0,0,100,0.00,40.00,0,-999,0,0.00
2013-10-27,42,42,42,-100,-100,-100,0,0,100,0.00,40.00,0,-999,0,0.01
2013-11-12,50,46,43,-100,-100,-100,0,0,100,0.00,40.00,0,-999,0,0.02
2013-11-13,45,44,42,-100,-100,-100,0,0,100,0.00,40.00,0,-999,0,0.00
2013-11-14,40,38,37,-100,-100,-100,0,0,100,0.00,40.00,0,-999,0,0.00
2013-11-15,37,37,37,-100,-100,-100,0,0,100,0.00,40.00,0,-999,0,0.00
2013-11-16,36,36,35,-100,-100,-100,0,0,100,0.00,40.00,0,-999,0,0.04
2013-11-17,42,42,42,-100,-100,-100,0,0,100,0.00,40.00,0,-999,0,0.00
2013-11-18,46,43,41,-100,-100,-100,0,0,100,0.00,40.00,0,-999,0,0.05
2013-11-19,45,36,29,-100,-100,-100,0,0,100,0.00,40.00,0,-999,0,0.07
2013-11-20,29,28,27,-100,-100,-100,0,0,100,0.00,40.00,0,-999,0,0.01
2013-11-21,35,34,33,-100,-100,-100,0,0,100,0.00,40.00,0,-999,0,0.00
2013-11-22,39,36,34,-100,-100,-100,0,0,100,0.00,40.00,0,-999,0,0.00
2013-11-23,44,41,35,-100,-100,-100,0,0,100,0.00,40.00,0,-999,0,0.00
2013-11-24,54,49,45,-100,-100,-100,0,0,100,0.00,40.00,0,-999,0,0.00
2013-11-25,50,50,50,-100,-100,-100,0,0,100,0.00,40.00,0,-999,0,0.00
2013-11-26,46,43,41,-100,-100,-100,0,0,100,0.00,40.00,0,-999,0,0.01
2013-11-27,49,46,43,-100,-100,-100,0,0,100,0.00,40.00,0,-999,0,0.01
2013-11-28,55,49,45,-100,-100,-100,0,0,100,0.00,40.00,0,-999,0,0.00
2013-11-29,46,44,43,-100,-100,-100,0,0,100,0.00,40.00,0,-999,0,0.02
2013-11-30,46,44,44,-100,-100,-100,0,0,100,0.00,40.00,0,-999,0,0.00
2013-12-1,47,46,45,-100,-100,-100,0,0,100,0.00,40.00,0,-999,0,0.07
2013-12-2,33,31,29,-100,-100,-100,0,0,100,0.00,40.00,0,-999,0,0.09
2013-12-3,28,25,22,-100,-100,-100,0,0,100,0.00,40.00,0,-999,0,0.00
2013-12-4,24,22,20,-100,-100,-100,0,0,100,0.00,40.00,0,-999,0,0.01
2013-12-11,43,39,32,-100,-100,-100,0,0,100,0.00,40.00,0,-999,0,0.00
2013-12-12,39,38,38,-100,-100,-100,0,0,100,0.00,40.00,0,-999,0,0.00
2013-12-13,41,41,40,-100,-100,-100,0,0,100,0.00,40.00,0,-999,0,0.01
2013-12-14,42,41,40,-100,-100,-100,0,0,100,0.00,40.00,0,-999,0,0.00
2013-12-15,43,42,42,-100,-100,-100,0,0,100,0.00,40.00,0,-999,0,0.00
2013-12-16,53,49,36,-100,-100,-100,0,0,100,0.00,40.00,0,-999,0,0.00
2013-12-17,54,46,41,-100,-100,-100,0,0,100,0.00,40.00,0,-999,0,0.00
2013-12-18,40,36,28,-100,-100,-100,0,0,100,0.00,40.00,0,-999,0,0.02
2013-12-19,32,29,26,-100,-100,-100,0,0,100,0.00,40.00,0,-999,0,0.01
2013-12-20,37,32,28,-100,-100,-100,0,0,100,0.00,40.00,0,-999,0,0.00
2013-12-21,41,38,37,-100,-100,-100,0,0,100,0.00,40.00,0,-999,0,0.01
2013-12-22,43,42,40,-100,-100,-100,0,0,100,0.00,40.00,0,-999,0,0.00
2013-12-23,41,41,41,-100,-100,-100,0,0,100,0.00,40.00,0,-999,0,0.00
2013-12-24,42,36,32,-100,-100,-100,0,0,100,0.00,40.00,0,-999,0,0.01
2013-12-25,47,47,47,-100,-100,-100,0,0,100,0.00,40.00,0,-999,0,0.00
2013-12-26,53,50,46,-100,-100,-100,0,0,100,0.00,40.00,0,-999,0,0.00
2013-12-28,42,41,40,-100,-100,-100,0,0,100,0.00,40.00,0,-999,0,0.00
2013-12-29,44,43,42,-100,-100,-100,0,0,100,0.00,40.00,0,-999,0,0.00
2013-12-30,52,52,52,-100,-100,-100,0,0,100,0.00,40.00,0,-999,0,0.00
2013-12-31,44,42,40,-100,-100,-100,0,0,100,0.00,40.00,0,-999,0,0.01
2014-1-1,51,47,41,-100,-100,-100,0,0,100,0.00,40.00,0,-999,0,0.01
2014-1-2,51,49,45,-100,-100,-100,0,0,100,0.00,40.00,0,-999,0,0.00